createdAt,value
2023-05-11T00:00:46.707Z,101605.28
2023-05-11T00:03:15.365Z,101600.13
2023-05-11T00:05:43.711Z,101611.91
2023-05-11T00:08:12.847Z,101596.59
2023-05-11T00:10:42.502Z,101596.88
2023-05-11T00:13:10.702Z,101596.59
2023-05-11T00:15:38.978Z,101598.59
2023-05-11T00:18:07.641Z,101603.50
2023-05-11T00:20:35.957Z,101585.81
2023-05-11T00:23:05.120Z,101592.44
2023-05-11T00:25:33.452Z,101604.47
2023-05-11T00:28:01.857Z,101590.66
2023-05-11T00:30:30.120Z,101591.41
2023-05-11T00:32:58.616Z,101596.69
2023-05-11T00:35:26.903Z,101592.28
2023-05-11T00:37:55.103Z,101602.22
2023-05-11T00:40:23.328Z,101598.06
2023-05-11T00:42:51.642Z,101593.78
2023-05-11T00:45:20.048Z,101602.16
2023-05-11T00:47:48.734Z,101593.34
2023-05-11T00:50:18.039Z,101603.31
2023-05-11T00:52:47.097Z,101597.97
2023-05-11T00:55:15.988Z,101601.84
2023-05-11T00:57:44.786Z,101605.50
2023-05-11T01:00:13.594Z,101597.72
2023-05-11T01:02:42.569Z,101596.97
2023-05-11T01:05:11.296Z,101604.94
2023-05-11T01:08:03.201Z,101601.66
2023-05-11T01:10:45.152Z,101599.34
2023-05-11T01:14:06.206Z,101612.81
2023-05-11T01:16:38.861Z,101616.47
2023-05-11T01:19:14.871Z,101612.19
2023-05-11T01:21:43.131Z,101613.91
2023-05-11T01:24:29.630Z,101605.28
2023-05-11T01:27:28.772Z,101608.38
2023-05-11T01:30:21.038Z,101610.50
2023-05-11T01:32:49.584Z,101615.09
2023-05-11T01:35:24.384Z,101616.16
2023-05-11T01:37:56.553Z,101620.81
2023-05-11T01:40:30.346Z,101619.34
2023-05-11T01:43:03.415Z,101613.13
2023-05-11T01:45:37.151Z,101622.97
2023-05-11T01:48:08.901Z,101625.78
2023-05-11T01:50:38.920Z,101630.34
2023-05-11T01:53:09.617Z,101622.50
2023-05-11T01:55:40.726Z,101631.53
2023-05-11T01:58:11.515Z,101624.69
2023-05-11T02:00:40.784Z,101626.66
2023-05-11T02:03:10.455Z,101625.06
2023-05-11T02:05:40.771Z,101623.50
2023-05-11T02:08:11.095Z,101623.69
2023-05-11T02:10:41.128Z,101638.19
2023-05-11T02:13:11.200Z,101633.97
2023-05-11T02:15:43.238Z,101631.38
2023-05-11T02:18:16.691Z,101640.09
2023-05-11T02:20:48.532Z,101633.09
2023-05-11T02:23:18.974Z,101627.03
2023-05-11T02:25:48.676Z,101636.97
2023-05-11T02:28:16.942Z,101637.13
2023-05-11T02:30:51.442Z,101641.81
2023-05-11T02:33:23.434Z,101638.50
2023-05-11T02:35:55.497Z,101632.47
2023-05-11T02:38:31.702Z,101643.25
2023-05-11T02:41:07.206Z,101645.25
2023-05-11T02:43:41.735Z,101646.34
2023-05-11T02:46:12.936Z,101651.78
2023-05-11T02:48:46.539Z,101647.47
2023-05-11T02:51:17.730Z,101655.50
2023-05-11T02:53:48.121Z,101653.06
2023-05-11T02:56:17.095Z,101660.41
2023-05-11T02:58:45.540Z,101666.84
2023-05-11T03:01:14.507Z,101662.53
2023-05-11T03:03:42.910Z,101665.44
2023-05-11T03:06:11.151Z,101662.06
2023-05-11T03:08:39.581Z,101665.81
2023-05-11T03:11:08.502Z,101665.91
2023-05-11T03:13:37.057Z,101669.44
2023-05-11T03:16:07.032Z,101669.41
2023-05-11T03:18:37.041Z,101669.53
2023-05-11T03:21:06.711Z,101670.47
2023-05-11T03:23:37.578Z,101670.66
2023-05-11T03:26:07.858Z,101680.63
2023-05-11T03:28:39.585Z,101684.31
2023-05-11T03:31:08.072Z,101687.09
2023-05-11T03:33:36.407Z,101697.81
2023-05-11T03:36:06.349Z,101689.00
2023-05-11T03:38:37.099Z,101690.81
2023-05-11T03:41:05.344Z,101684.72
2023-05-11T03:43:37.356Z,101690.06
2023-05-11T03:46:06.670Z,101690.16
2023-05-11T03:48:35.201Z,101691.16
2023-05-11T03:51:05.777Z,101704.66
2023-05-11T03:53:34.639Z,101698.56
2023-05-11T03:56:04.494Z,101700.38
2023-05-11T03:58:33.360Z,101703.13
2023-05-11T04:01:01.798Z,101703.03
2023-05-11T04:03:30.154Z,101698.63
2023-05-11T04:05:58.592Z,101698.69
2023-05-11T04:08:26.787Z,101692.56
2023-05-11T04:10:54.952Z,101700.59
2023-05-11T04:13:23.158Z,101703.19
2023-05-11T04:15:53.686Z,101703.25
2023-05-11T04:18:22.565Z,101701.56
2023-05-11T04:20:50.753Z,101711.22
2023-05-11T04:23:18.967Z,101711.22
2023-05-11T04:25:47.206Z,101716.50
2023-05-11T04:28:15.456Z,101725.38
2023-05-11T04:30:43.605Z,101729.94
2023-05-11T04:33:12.978Z,101727.34
2023-05-11T04:35:41.526Z,101738.91
2023-05-11T04:38:09.877Z,101728.31
2023-05-11T04:40:38.116Z,101736.44
2023-05-11T04:43:06.343Z,101723.25
2023-05-11T04:45:34.601Z,101727.69
2023-05-11T04:48:02.916Z,101732.09
2023-05-11T04:50:31.431Z,101742.75
2023-05-11T04:52:59.642Z,101741.88
2023-05-11T04:55:27.880Z,101739.31
2023-05-11T04:57:56.216Z,101745.69
2023-05-11T05:00:24.515Z,101743.19
2023-05-11T05:02:52.740Z,101745.84
2023-05-11T05:05:21.041Z,101756.56
2023-05-11T05:07:49.444Z,101750.41
2023-05-11T05:10:17.994Z,101758.44
2023-05-11T05:12:46.697Z,101755.88
2023-05-11T05:15:15.085Z,101762.97
2023-05-11T05:17:44.028Z,101771.81
2023-05-11T05:20:12.535Z,101775.34
2023-05-11T05:22:40.732Z,101777.22
2023-05-11T05:25:09.853Z,101767.47
2023-05-11T05:27:38.056Z,101773.66
2023-05-11T05:30:07.017Z,101771.88
2023-05-11T05:32:35.276Z,101774.56
2023-05-11T05:35:04.176Z,101775.44
2023-05-11T05:37:32.325Z,101771.03
2023-05-11T05:40:00.643Z,101772.00
2023-05-11T05:42:28.931Z,101772.03
2023-05-11T05:44:57.150Z,101776.53
2023-05-11T05:47:25.450Z,101776.66
2023-05-11T05:49:53.719Z,101776.63
2023-05-11T05:52:21.912Z,101778.41
2023-05-11T05:54:50.362Z,101783.72
2023-05-11T05:57:18.604Z,101776.53
2023-05-11T05:59:47.074Z,101777.41
2023-05-11T06:02:15.730Z,101773.88
2023-05-11T06:04:44.070Z,101773.88
2023-05-11T06:07:12.428Z,101778.41
2023-05-11T06:09:41.268Z,101777.50
2023-05-11T06:12:10.923Z,101768.66
2023-05-11T06:14:39.086Z,101775.91
2023-05-11T06:17:07.334Z,101774.22
2023-05-11T06:19:35.694Z,101777.78
2023-05-11T06:22:06.505Z,101774.28
2023-05-11T06:24:35.098Z,101775.16
2023-05-11T06:27:03.783Z,101773.44
2023-05-11T06:29:32.031Z,101774.41
2023-05-11T06:32:00.321Z,101774.47
2023-05-11T06:34:28.618Z,101780.69
2023-05-11T06:36:59.740Z,101770.94
2023-05-11T06:39:27.954Z,101777.16
2023-05-11T06:41:57.685Z,101774.59
2023-05-11T06:44:27.684Z,101778.19
2023-05-11T06:46:55.914Z,101772.91
2023-05-11T06:49:24.216Z,101776.44
2023-05-11T06:51:52.422Z,101776.59
2023-05-11T06:54:20.634Z,101773.13
2023-05-11T06:56:52.132Z,101773.94
2023-05-11T06:59:20.327Z,101771.25
2023-05-11T07:01:48.883Z,101780.97
2023-05-11T07:04:17.147Z,101772.25
2023-05-11T07:06:45.377Z,101770.66
2023-05-11T07:09:13.652Z,101769.03
2023-05-11T07:11:42.275Z,101770.88
2023-05-11T07:14:10.600Z,101773.56
2023-05-11T07:16:39.215Z,101769.16
2023-05-11T07:19:11.492Z,101768.25
2023-05-11T07:21:40.087Z,101767.47
2023-05-11T07:24:08.373Z,101775.50
2023-05-11T07:26:36.591Z,101772.88
2023-05-11T07:29:05.396Z,101779.09
2023-05-11T07:31:34.422Z,101783.59
2023-05-11T07:34:02.755Z,101780.97
2023-05-11T07:36:31.161Z,101777.44
2023-05-11T07:39:00.352Z,101775.63
2023-05-11T07:41:31.774Z,101769.38
2023-05-11T07:44:02.634Z,101764.91
2023-05-11T07:46:31.250Z,101770.22
2023-05-11T07:49:14.034Z,101764.00
2023-05-11T07:51:45.607Z,101765.75
2023-05-11T07:54:13.887Z,101767.59
2023-05-11T07:56:42.759Z,101764.13
2023-05-11T07:59:11.112Z,101765.91
2023-05-11T08:01:39.360Z,101761.47
2023-05-11T08:04:07.914Z,101761.44
2023-05-11T08:06:36.290Z,101761.41
2023-05-11T08:09:04.680Z,101765.72
2023-05-11T08:11:32.887Z,101760.41
2023-05-11T08:14:01.077Z,101760.38
2023-05-11T08:16:29.326Z,101766.53
2023-05-11T08:18:57.683Z,101762.13
2023-05-11T08:21:25.857Z,101758.56
2023-05-11T08:23:54.021Z,101754.09
2023-05-11T08:26:22.330Z,101759.31
2023-05-11T08:28:50.545Z,101752.16
2023-05-11T08:31:19.462Z,101752.13
2023-05-11T08:33:48.032Z,101759.13
2023-05-11T08:36:16.566Z,101757.34
2023-05-11T08:38:45.579Z,101745.81
2023-05-11T08:41:14.312Z,101747.53
2023-05-11T08:43:44.334Z,101741.28
2023-05-11T08:46:15.399Z,101735.97
2023-05-11T08:48:45.270Z,101737.72
2023-05-11T08:51:13.530Z,101738.56
2023-05-11T08:53:41.814Z,101740.31
2023-05-11T08:56:11.535Z,101738.53
2023-05-11T08:58:40.762Z,101738.53
2023-05-11T09:01:11.339Z,101735.84
2023-05-11T09:03:41.496Z,101731.41
2023-05-11T09:06:10.769Z,101732.28
2023-05-11T09:08:39.361Z,101726.88
2023-05-11T09:11:08.120Z,101725.09
2023-05-11T09:13:36.550Z,101723.31
2023-05-11T09:16:07.318Z,101728.59
2023-05-11T09:18:53.651Z,101726.81
2023-05-11T09:21:22.119Z,101722.34
2023-05-11T09:23:56.299Z,101722.34
2023-05-11T09:26:30.547Z,101721.50
2023-05-11T09:29:03.922Z,101719.75
2023-05-11T09:31:40.847Z,101715.34
2023-05-11T09:34:20.217Z,101725.94
2023-05-11T09:36:53.405Z,101719.72
2023-05-11T09:39:41.732Z,101719.69
2023-05-11T09:42:20.073Z,101715.19
2023-05-11T09:44:49.554Z,101713.34
2023-05-11T09:47:20.724Z,101710.69
2023-05-11T09:49:49.753Z,101708.03
2023-05-11T09:52:19.814Z,101709.00
2023-05-11T09:54:53.984Z,101709.00
2023-05-11T09:57:32.394Z,101705.44
2023-05-11T10:00:01.445Z,101703.66
2023-05-11T10:02:31.846Z,101698.34
2023-05-11T10:05:02.134Z,101702.78
2023-05-11T10:07:31.738Z,101695.72
2023-05-11T10:10:02.448Z,101699.28
2023-05-11T10:12:33.664Z,101689.53
2023-05-11T10:15:10.317Z,101697.44
2023-05-11T10:17:38.997Z,101684.16
2023-05-11T10:20:08.317Z,101692.97
2023-05-11T10:22:37.875Z,101691.19
2023-05-11T10:25:07.310Z,101692.91
2023-05-11T10:27:35.826Z,101696.44
2023-05-11T10:30:04.801Z,101686.69
2023-05-11T10:32:35.887Z,101686.59
2023-05-11T10:35:05.842Z,101685.72
2023-05-11T10:37:34.730Z,101681.34
2023-05-11T10:40:03.256Z,101683.13
2023-05-11T10:42:57.281Z,101684.94
2023-05-11T10:45:37.390Z,101676.06
2023-05-11T10:48:20.584Z,101675.19
2023-05-11T10:51:15.930Z,101681.38
2023-05-11T10:53:52.721Z,101672.53
2023-05-11T10:56:48.832Z,101672.53
2023-05-11T10:59:50.471Z,101668.06
2023-05-11T11:02:19.808Z,101669.81
2023-05-11T11:04:51.356Z,101672.44
2023-05-11T11:07:20.653Z,101678.63
2023-05-11T11:10:05.887Z,101668.94
2023-05-11T11:12:37.581Z,101665.38
2023-05-11T11:15:07.752Z,101667.22
2023-05-11T11:17:37.282Z,101665.44
2023-05-11T11:20:09.747Z,101667.22
2023-05-11T11:22:39.253Z,101664.47
2023-05-11T11:25:08.662Z,101664.47
2023-05-11T11:27:43.041Z,101667.94
2023-05-11T11:30:19.281Z,101662.69
2023-05-11T11:33:08.537Z,101657.31
2023-05-11T11:35:42.977Z,101655.63
2023-05-11T11:38:11.923Z,101651.22
2023-05-11T11:40:50.577Z,101648.56
2023-05-11T11:43:22.387Z,101652.16
2023-05-11T11:46:00.585Z,101651.28
2023-05-11T11:48:36.646Z,101649.50
2023-05-11T11:51:09.612Z,101646.88
2023-05-11T11:53:41.668Z,101649.63
2023-05-11T11:56:10.574Z,101646.06
2023-05-11T11:58:41.821Z,101646.06
2023-05-11T12:01:14.076Z,101643.31
2023-05-11T12:03:44.759Z,101640.75
2023-05-11T12:06:13.518Z,101642.53
2023-05-11T12:08:43.961Z,101639.88
2023-05-11T12:11:12.185Z,101641.66
2023-05-11T12:13:43.368Z,101643.41
2023-05-11T12:16:16.342Z,101643.41
2023-05-11T12:18:53.765Z,101642.44
2023-05-11T12:21:23.226Z,101647.75
2023-05-11T12:23:56.130Z,101652.16
2023-05-11T12:26:26.602Z,101641.56
2023-05-11T12:29:08.403Z,101646.88
2023-05-11T12:31:38.331Z,101642.59
2023-05-11T12:34:06.920Z,101636.44
2023-05-11T12:36:35.896Z,101632.88
2023-05-11T12:39:05.626Z,101632.94
2023-05-11T12:41:33.964Z,101634.66
2023-05-11T12:44:02.479Z,101635.44
2023-05-11T12:46:30.889Z,101633.69
2023-05-11T12:48:59.942Z,101638.09
2023-05-11T12:51:48.126Z,101638.09
2023-05-11T12:54:39.990Z,101637.22
2023-05-11T12:57:10.369Z,101640.75
2023-05-11T12:59:40.742Z,101634.56
2023-05-11T13:02:17.258Z,101633.66
2023-05-11T13:04:46.925Z,101629.22
2023-05-11T13:07:24.564Z,101638.88
2023-05-11T13:10:00.510Z,101642.41
2023-05-11T13:12:32.252Z,101640.66
2023-05-11T13:15:08.838Z,101645.06
2023-05-11T13:17:41.079Z,101649.44
2023-05-11T13:20:30.220Z,101640.66
2023-05-11T13:23:15.429Z,101650.38
2023-05-11T13:25:49.764Z,101650.31
2023-05-11T13:28:19.900Z,101650.31
2023-05-11T13:30:48.986Z,101653.75
2023-05-11T13:33:17.280Z,101651.09
2023-05-11T13:35:47.103Z,101651.88
2023-05-11T13:38:15.352Z,101648.28
2023-05-11T13:40:43.610Z,101656.16
2023-05-11T13:43:11.938Z,101665.78
2023-05-11T13:45:41.999Z,101663.09
2023-05-11T13:48:10.303Z,101672.78
2023-05-11T13:50:38.555Z,101676.31
2023-05-11T13:53:07.136Z,101676.34
2023-05-11T13:55:39.053Z,101693.13
2023-05-11T13:58:07.637Z,101691.25
2023-05-11T14:00:36.062Z,101686.69
2023-05-11T14:03:04.864Z,101688.38
2023-05-11T14:05:33.317Z,101688.34
2023-05-11T14:08:01.537Z,101689.19
2023-05-11T14:10:29.854Z,101697.06
2023-05-11T14:12:58.073Z,101701.44
2023-05-11T14:15:26.309Z,101704.00
2023-05-11T14:17:54.587Z,101700.41
2023-05-11T14:20:22.850Z,101697.69
2023-05-11T14:22:51.353Z,101693.19
2023-05-11T14:25:19.938Z,101694.03
2023-05-11T14:27:50.271Z,101694.00
2023-05-11T14:30:18.501Z,101708.09
2023-05-11T14:32:47.112Z,101696.50
2023-05-11T14:35:15.479Z,101699.06
2023-05-11T14:37:43.736Z,101701.72
2023-05-11T14:40:12.183Z,101704.22
2023-05-11T14:42:40.523Z,101707.75
2023-05-11T14:45:09.252Z,101718.31
2023-05-11T14:47:37.572Z,101719.16
2023-05-11T14:50:06.354Z,101721.75
2023-05-11T14:52:34.566Z,101723.44
2023-05-11T14:55:02.778Z,101733.97
2023-05-11T14:57:31.070Z,101730.50
2023-05-11T15:00:00.692Z,101729.56
2023-05-11T15:02:30.458Z,101733.03
2023-05-11T15:04:58.771Z,101730.28
2023-05-11T15:07:27.588Z,101733.75
2023-05-11T15:09:56.053Z,101736.38
2023-05-11T15:12:25.182Z,101738.09
2023-05-11T15:14:53.392Z,101738.09
2023-05-11T15:17:21.741Z,101737.06
2023-05-11T15:19:50.050Z,101739.63
2023-05-11T15:22:18.318Z,101735.16
2023-05-11T15:24:46.935Z,101731.47
2023-05-11T15:27:15.188Z,101736.75
2023-05-11T15:29:43.702Z,101736.63
2023-05-11T15:32:15.942Z,101740.00
2023-05-11T15:34:54.897Z,101739.75
2023-05-11T15:37:27.250Z,101727.09
2023-05-11T15:39:55.485Z,101728.69
2023-05-11T15:42:23.731Z,101730.34
2023-05-11T15:44:51.957Z,101727.59
2023-05-11T15:47:20.268Z,101723.00
2023-05-11T15:49:48.806Z,101720.13
2023-05-11T15:52:17.025Z,101724.44
2023-05-11T15:54:45.257Z,101720.59
2023-05-11T15:57:13.481Z,101724.00
2023-05-11T15:59:41.786Z,101728.22
2023-05-11T16:02:10.050Z,101725.56
2023-05-11T16:04:38.382Z,101732.63
2023-05-11T16:07:07.031Z,101737.72
2023-05-11T16:09:35.373Z,101738.47
2023-05-11T16:12:03.621Z,101734.75
2023-05-11T16:14:31.897Z,101730.09
2023-05-11T16:17:02.788Z,101738.81
2023-05-11T16:19:33.985Z,101734.22
2023-05-11T16:22:02.209Z,101733.28
2023-05-11T16:24:33.499Z,101726.09
2023-05-11T16:27:02.580Z,101735.88
2023-05-11T16:29:31.031Z,101732.00
2023-05-11T16:31:59.445Z,101733.53
2023-05-11T16:34:28.344Z,101733.19
2023-05-11T16:36:58.716Z,101729.09
2023-05-11T16:39:28.121Z,101720.44
2023-05-11T16:41:56.301Z,101719.94
2023-05-11T16:44:25.486Z,101714.09
2023-05-11T16:46:53.758Z,101718.81
2023-05-11T16:49:22.088Z,101719.84
2023-05-11T16:51:50.518Z,101726.72
2023-05-11T16:54:18.786Z,101721.38
2023-05-11T16:56:47.130Z,101725.25
2023-05-11T16:59:15.454Z,101716.06
2023-05-11T17:01:43.709Z,101713.19
2023-05-11T17:04:12.933Z,101725.00
2023-05-11T17:06:41.422Z,101718.97
2023-05-11T17:09:09.654Z,101711.63
2023-05-11T17:11:37.936Z,101705.00
2023-05-11T17:14:06.494Z,101703.66
2023-05-11T17:16:34.909Z,101720.03
2023-05-11T17:19:03.308Z,101711.66
2023-05-11T17:21:31.706Z,101713.56
2023-05-11T17:23:59.913Z,101712.94
2023-05-11T17:26:39.148Z,101718.50
2023-05-11T17:29:11.958Z,101717.81
2023-05-11T17:31:40.471Z,101711.91
2023-05-11T17:34:11.884Z,101709.91
2023-05-11T17:36:40.440Z,101715.38
2023-05-11T17:39:10.634Z,101722.03
2023-05-11T17:41:39.075Z,101706.53
2023-05-11T17:44:07.347Z,101713.53
2023-05-11T17:46:35.789Z,101710.69
2023-05-11T17:49:04.834Z,101712.44
2023-05-11T17:51:33.750Z,101712.81
2023-05-11T17:54:02.100Z,101717.19
2023-05-11T17:56:30.335Z,101707.31
2023-05-11T17:58:58.526Z,101710.00
2023-05-11T18:01:28.271Z,101712.00
2023-05-11T18:03:58.805Z,101700.41
2023-05-11T18:06:28.569Z,101707.16
2023-05-11T18:08:56.837Z,101708.34
2023-05-11T18:11:25.236Z,101701.66
2023-05-11T18:13:53.465Z,101697.81
2023-05-11T18:16:22.533Z,101712.00
2023-05-11T18:18:50.794Z,101698.56
2023-05-11T18:21:19.887Z,101698.50
2023-05-11T18:23:48.388Z,101695.59
2023-05-11T18:26:17.062Z,101695.00
2023-05-11T18:28:45.507Z,101693.59
2023-05-11T18:31:13.787Z,101683.72
2023-05-11T18:33:42.318Z,101683.03
2023-05-11T18:36:12.170Z,101680.91
2023-05-11T18:38:40.381Z,101679.47
2023-05-11T18:41:09.163Z,101669.28
2023-05-11T18:43:37.441Z,101676.84
2023-05-11T18:46:09.759Z,101673.28
2023-05-11T18:48:38.370Z,101671.44
2023-05-11T18:51:07.205Z,101672.31
2023-05-11T18:53:35.485Z,101666.78
2023-05-11T18:56:03.795Z,101663.56
2023-05-11T18:58:32.012Z,101675.81
2023-05-11T19:01:00.285Z,101668.50
2023-05-11T19:03:29.312Z,101659.00
2023-05-11T19:05:57.596Z,101655.88
2023-05-11T19:08:25.870Z,101662.06
2023-05-11T19:10:54.081Z,101652.19
2023-05-11T19:13:22.368Z,101649.31
2023-05-11T19:15:51.084Z,101648.69
2023-05-11T19:18:19.458Z,101643.03
2023-05-11T19:20:48.496Z,101646.09
2023-05-11T19:23:17.822Z,101646.66
2023-05-11T19:25:46.466Z,101653.03
2023-05-11T19:28:14.817Z,101641.97
2023-05-11T19:30:43.057Z,101641.78
2023-05-11T19:33:11.627Z,101649.75
2023-05-11T19:35:39.958Z,101649.75
2023-05-11T19:38:08.231Z,101655.63
2023-05-11T19:40:46.036Z,101646.38
2023-05-11T19:43:15.176Z,101646.22
2023-05-11T19:45:45.999Z,101641.78
2023-05-11T19:48:14.902Z,101644.28
2023-05-11T19:50:43.135Z,101645.56
2023-05-11T19:53:11.355Z,101644.59
2023-05-11T19:55:41.962Z,101638.41
2023-05-11T19:58:10.234Z,101649.94
2023-05-11T20:00:39.213Z,101653.66
2023-05-11T20:03:08.297Z,101639.75
2023-05-11T20:05:36.602Z,101641.66
2023-05-11T20:08:06.964Z,101636.88
2023-05-11T20:10:36.290Z,101629.84
2023-05-11T20:13:06.382Z,101628.88
2023-05-11T20:15:35.107Z,101624.78
2023-05-11T20:18:03.894Z,101619.72
2023-05-11T20:20:33.413Z,101629.84
2023-05-11T20:23:03.211Z,101624.00
2023-05-11T20:25:31.677Z,101618.28
2023-05-11T20:27:59.824Z,101619.56
2023-05-11T20:30:28.100Z,101610.84
2023-05-11T20:35:27.628Z,101626.41
2023-05-11T20:37:56.162Z,101615.84
2023-05-11T20:40:26.214Z,101629.75
2023-05-11T20:42:54.435Z,101616.28
2023-05-11T20:45:22.716Z,101619.34
2023-05-11T20:47:51.021Z,101622.84
2023-05-11T20:50:19.533Z,101627.56
2023-05-11T20:52:48.327Z,101625.31
2023-05-11T20:55:16.963Z,101627.97
2023-05-11T20:57:45.234Z,101621.06
2023-05-11T21:00:16.874Z,101623.00
2023-05-11T21:02:47.197Z,101616.53
2023-05-11T21:05:15.680Z,101610.19
2023-05-11T21:07:43.887Z,101610.91
2023-05-11T21:10:13.475Z,101613.00
2023-05-11T21:12:41.703Z,101607.09
2023-05-11T21:15:10.565Z,101597.84
2023-05-11T21:17:38.823Z,101594.75
2023-05-11T21:20:07.546Z,101608.16
2023-05-11T21:22:37.237Z,101603.78
2023-05-11T21:25:06.374Z,101597.47
2023-05-11T21:27:34.673Z,101600.50
2023-05-11T21:30:03.042Z,101598.28
2023-05-11T21:32:31.257Z,101601.03
2023-05-11T21:34:59.672Z,101597.47
2023-05-11T21:37:27.963Z,101601.91
2023-05-11T21:39:56.406Z,101581.19
2023-05-11T21:42:24.599Z,101581.47
2023-05-11T21:44:52.988Z,101584.00
2023-05-11T21:47:21.235Z,101573.50
2023-05-11T21:49:51.851Z,101573.06
2023-05-11T21:52:20.210Z,101569.50
2023-05-11T21:54:48.735Z,101565.63
2023-05-11T21:57:17.017Z,101561.41
2023-05-11T21:59:45.268Z,101563.06
2023-05-11T22:02:13.658Z,101557.53
2023-05-11T22:04:41.984Z,101563.13
2023-05-11T22:07:10.298Z,101553.56
2023-05-11T22:09:39.120Z,101554.41
2023-05-11T22:12:07.877Z,101554.16
2023-05-11T22:14:36.413Z,101544.38
2023-05-11T22:17:05.543Z,101547.38
2023-05-11T22:19:34.323Z,101531.69
2023-05-11T22:22:02.695Z,101532.06
2023-05-11T22:24:30.988Z,101528.22
2023-05-11T22:27:00.254Z,101528.81
2023-05-11T22:29:28.480Z,101530.75
2023-05-11T22:31:56.945Z,101526.75
2023-05-11T22:34:25.265Z,101527.88
2023-05-11T22:36:53.463Z,101523.44
2023-05-11T22:39:21.948Z,101512.28
2023-05-11T22:41:50.157Z,101525.22
2023-05-11T22:44:18.757Z,101515.41
2023-05-11T22:46:47.183Z,101520.19
2023-05-11T22:49:15.941Z,101517.50
2023-05-11T22:51:47.295Z,101520.97
2023-05-11T22:54:18.702Z,101516.91
2023-05-11T22:56:47.116Z,101512.38
2023-05-11T22:59:15.301Z,101504.91
2023-05-11T23:01:43.673Z,101507.13
2023-05-11T23:04:11.995Z,101506.59
2023-05-11T23:06:40.191Z,101499.78
2023-05-11T23:09:08.760Z,101498.59
2023-05-11T23:11:36.999Z,101499.38
2023-05-11T23:14:05.216Z,101497.41
2023-05-11T23:16:33.434Z,101494.78
2023-05-11T23:19:03.322Z,101498.09
2023-05-11T23:21:31.703Z,101490.81
2023-05-11T23:23:59.939Z,101484.25
2023-05-11T23:26:28.161Z,101486.13
2023-05-11T23:29:11.949Z,101500.00
2023-05-11T23:31:40.323Z,101495.47
2023-05-11T23:34:08.713Z,101487.97
2023-05-11T23:36:37.068Z,101481.38
2023-05-11T23:39:06.264Z,101484.06
2023-05-11T23:41:34.672Z,101480.28
2023-05-11T23:44:03.275Z,101482.44
2023-05-11T23:46:33.316Z,101482.94
2023-05-11T23:49:01.487Z,101479.78
2023-05-11T23:51:29.742Z,101472.50
2023-05-11T23:53:57.954Z,101479.03
2023-05-11T23:56:26.272Z,101487.72
2023-05-11T23:58:54.725Z,101475.75
